Aviation Digital Data Service (ADDS)

Output produced by METARs form (0013 UTC 25 November 2017)
found at http://www.aviationweather.gov/adds/metars/
 
KSFO 242327Z 2500/2606 30008KT P6SM BKN120 BKN200 
     FM250100 29011KT P6SM BKN120 
     FM250500 30007KT P6SM BKN120 
     FM251000 VRB04KT P6SM FEW010 BKN120 
     FM252100 15008KT P6SM BKN150 
     FM260300 16005KT P6SM OVC150